sensor_id;sensor_type;location;lat;lon;timestamp;P1;durP1;ratioP1;P2;durP2;ratioP2
38787;SDS011;24536;45.488;12.238;2024-03-08T00:01:12;8.07;;;6.57;;
38787;SDS011;24536;45.488;12.238;2024-03-08T00:03:38;13.20;;;9.88;;
38787;SDS011;24536;45.488;12.238;2024-03-08T00:06:05;11.75;;;8.70;;
38787;SDS011;24536;45.488;12.238;2024-03-08T00:08:31;7.60;;;6.80;;
38787;SDS011;24536;45.488;12.238;2024-03-08T00:10:56;8.68;;;6.30;;
38787;SDS011;24536;45.488;12.238;2024-03-08T00:13:22;9.25;;;6.93;;
38787;SDS011;24536;45.488;12.238;2024-03-08T00:15:50;8.25;;;6.97;;
38787;SDS011;24536;45.488;12.238;2024-03-08T00:18:16;8.25;;;6.97;;
38787;SDS011;24536;45.488;12.238;2024-03-08T00:20:41;7.65;;;5.97;;
38787;SDS011;24536;45.488;12.238;2024-03-08T00:23:09;8.65;;;6.50;;
38787;SDS011;24536;45.488;12.238;2024-03-08T00:25:35;6.72;;;6.03;;
38787;SDS011;24536;45.488;12.238;2024-03-08T00:28:01;7.45;;;6.32;;
38787;SDS011;24536;45.488;12.238;2024-03-08T00:30:27;6.70;;;6.00;;
38787;SDS011;24536;45.488;12.238;2024-03-08T00:32:53;7.03;;;5.97;;
38787;SDS011;24536;45.488;12.238;2024-03-08T00:35:18;9.75;;;6.20;;
38787;SDS011;24536;45.488;12.238;2024-03-08T00:37:44;6.57;;;5.88;;
38787;SDS011;24536;45.488;12.238;2024-03-08T00:40:12;5.78;;;5.07;;
38787;SDS011;24536;45.488;12.238;2024-03-08T00:42:38;6.90;;;5.35;;
38787;SDS011;24536;45.488;12.238;2024-03-08T00:45:06;7.00;;;5.75;;
38787;SDS011;24536;45.488;12.238;2024-03-08T00:47:32;6.22;;;5.63;;
38787;SDS011;24536;45.488;12.238;2024-03-08T00:49:58;5.88;;;5.13;;
38787;SDS011;24536;45.488;12.238;2024-03-08T00:52:23;6.85;;;6.05;;
38787;SDS011;24536;45.488;12.238;2024-03-08T00:54:49;5.85;;;5.13;;
38787;SDS011;24536;45.488;12.238;2024-03-08T00:57:15;7.43;;;5.72;;
38787;SDS011;24536;45.488;12.238;2024-03-08T00:59:41;8.35;;;6.28;;
38787;SDS011;24536;45.488;12.238;2024-03-08T01:02:06;8.13;;;6.28;;
38787;SDS011;24536;45.488;12.238;2024-03-08T01:04:34;8.60;;;7.10;;
38787;SDS011;24536;45.488;12.238;2024-03-08T01:07:00;8.45;;;7.55;;
38787;SDS011;24536;45.488;12.238;2024-03-08T01:09:26;9.30;;;8.30;;
38787;SDS011;24536;45.488;12.238;2024-03-08T01:11:55;9.55;;;8.00;;
38787;SDS011;24536;45.488;12.238;2024-03-08T01:14:21;9.60;;;7.40;;
38787;SDS011;24536;45.488;12.238;2024-03-08T01:16:55;9.32;;;8.00;;
38787;SDS011;24536;45.488;12.238;2024-03-08T01:19:20;9.00;;;7.90;;
38787;SDS011;24536;45.488;12.238;2024-03-08T01:21:46;7.20;;;6.30;;
38787;SDS011;24536;45.488;12.238;2024-03-08T01:24:11;8.10;;;5.97;;
38787;SDS011;24536;45.488;12.238;2024-03-08T01:26:37;7.88;;;6.45;;
38787;SDS011;24536;45.488;12.238;2024-03-08T01:29:03;11.50;;;7.85;;
38787;SDS011;24536;45.488;12.238;2024-03-08T01:31:29;7.13;;;6.25;;
38787;SDS011;24536;45.488;12.238;2024-03-08T01:33:56;6.40;;;5.75;;
38787;SDS011;24536;45.488;12.238;2024-03-08T01:36:22;7.47;;;6.68;;
38787;SDS011;24536;45.488;12.238;2024-03-08T01:38:48;7.32;;;6.13;;
38787;SDS011;24536;45.488;12.238;2024-03-08T01:41:14;6.85;;;6.15;;
38787;SDS011;24536;45.488;12.238;2024-03-08T01:43:41;6.70;;;5.70;;
38787;SDS011;24536;45.488;12.238;2024-03-08T01:46:07;8.18;;;6.40;;
38787;SDS011;24536;45.488;12.238;2024-03-08T01:48:34;6.57;;;5.88;;
38787;SDS011;24536;45.488;12.238;2024-03-08T01:50:59;8.18;;;6.45;;
38787;SDS011;24536;45.488;12.238;2024-03-08T01:53:26;6.63;;;5.90;;
38787;SDS011;24536;45.488;12.238;2024-03-08T01:55:57;5.88;;;5.28;;
38787;SDS011;24536;45.488;12.238;2024-03-08T02:00:51;6.53;;;5.53;;
38787;SDS011;24536;45.488;12.238;2024-03-08T02:03:18;6.50;;;5.82;;
38787;SDS011;24536;45.488;12.238;2024-03-08T02:05:44;7.63;;;6.18;;
38787;SDS011;24536;45.488;12.238;2024-03-08T02:08:10;7.18;;;6.47;;
38787;SDS011;24536;45.488;12.238;2024-03-08T02:10:39;8.75;;;7.05;;
38787;SDS011;24536;45.488;12.238;2024-03-08T02:13:09;6.30;;;5.53;;
38787;SDS011;24536;45.488;12.238;2024-03-08T02:15:51;7.70;;;5.80;;
38787;SDS011;24536;45.488;12.238;2024-03-08T02:18:17;6.03;;;5.43;;
38787;SDS011;24536;45.488;12.238;2024-03-08T02:20:44;6.00;;;5.40;;
38787;SDS011;24536;45.488;12.238;2024-03-08T02:23:18;6.25;;;5.45;;
38787;SDS011;24536;45.488;12.238;2024-03-08T02:25:44;6.03;;;5.18;;
38787;SDS011;24536;45.488;12.238;2024-03-08T02:28:11;5.82;;;5.05;;
38787;SDS011;24536;45.488;12.238;2024-03-08T02:30:37;6.70;;;5.80;;
38787;SDS011;24536;45.488;12.238;2024-03-08T02:33:03;6.03;;;5.35;;
38787;SDS011;24536;45.488;12.238;2024-03-08T02:35:30;5.97;;;4.93;;
38787;SDS011;24536;45.488;12.238;2024-03-08T02:37:56;5.95;;;5.35;;
38787;SDS011;24536;45.488;12.238;2024-03-08T02:40:21;5.47;;;4.78;;
38787;SDS011;24536;45.488;12.238;2024-03-08T02:42:47;6.32;;;5.63;;
38787;SDS011;24536;45.488;12.238;2024-03-08T02:45:13;7.30;;;5.25;;
38787;SDS011;24536;45.488;12.238;2024-03-08T02:47:38;5.25;;;4.65;;
38787;SDS011;24536;45.488;12.238;2024-03-08T02:50:05;5.00;;;4.25;;
38787;SDS011;24536;45.488;12.238;2024-03-08T02:52:33;4.88;;;4.38;;
38787;SDS011;24536;45.488;12.238;2024-03-08T02:54:59;4.85;;;4.40;;
38787;SDS011;24536;45.488;12.238;2024-03-08T02:57:24;4.60;;;4.20;;
38787;SDS011;24536;45.488;12.238;2024-03-08T02:59:50;4.50;;;3.97;;
38787;SDS011;24536;45.488;12.238;2024-03-08T03:02:16;4.25;;;3.85;;
38787;SDS011;24536;45.488;12.238;2024-03-08T03:04:41;3.85;;;3.47;;
38787;SDS011;24536;45.488;12.238;2024-03-08T03:07:08;3.38;;;3.05;;
38787;SDS011;24536;45.488;12.238;2024-03-08T03:09:33;2.75;;;2.55;;
38787;SDS011;24536;45.488;12.238;2024-03-08T03:12:00;2.40;;;2.20;;
38787;SDS011;24536;45.488;12.238;2024-03-08T03:14:25;2.55;;;2.35;;
38787;SDS011;24536;45.488;12.238;2024-03-08T03:16:52;4.22;;;2.10;;
38787;SDS011;24536;45.488;12.238;2024-03-08T03:19:18;3.20;;;2.90;;
38787;SDS011;24536;45.488;12.238;2024-03-08T03:21:44;2.10;;;1.90;;
38787;SDS011;24536;45.488;12.238;2024-03-08T03:24:09;2.10;;;1.90;;
38787;SDS011;24536;45.488;12.238;2024-03-08T03:26:38;1.85;;;1.70;;
38787;SDS011;24536;45.488;12.238;2024-03-08T03:31:31;2.70;;;2.00;;
38787;SDS011;24536;45.488;12.238;2024-03-08T03:33:57;5.47;;;2.17;;
38787;SDS011;24536;45.488;12.238;2024-03-08T03:36:30;1.70;;;1.60;;
38787;SDS011;24536;45.488;12.238;2024-03-08T03:38:56;1.98;;;1.75;;
38787;SDS011;24536;45.488;12.238;2024-03-08T03:41:32;1.83;;;1.63;;
38787;SDS011;24536;45.488;12.238;2024-03-08T03:43:57;2.67;;;1.50;;
38787;SDS011;24536;45.488;12.238;2024-03-08T03:46:24;2.85;;;1.65;;
38787;SDS011;24536;45.488;12.238;2024-03-08T03:48:52;1.48;;;1.38;;
38787;SDS011;24536;45.488;12.238;2024-03-08T03:51:18;3.00;;;1.73;;
38787;SDS011;24536;45.488;12.238;2024-03-08T03:53:45;2.15;;;1.70;;
38787;SDS011;24536;45.488;12.238;2024-03-08T03:56:10;2.15;;;1.40;;
38787;SDS011;24536;45.488;12.238;2024-03-08T03:58:36;1.70;;;1.60;;
38787;SDS011;24536;45.488;12.238;2024-03-08T04:01:04;2.72;;;1.70;;
38787;SDS011;24536;45.488;12.238;2024-03-08T04:03:29;1.40;;;1.30;;
38787;SDS011;24536;45.488;12.238;2024-03-08T04:05:55;3.70;;;1.88;;
38787;SDS011;24536;45.488;12.238;2024-03-08T04:08:21;1.83;;;1.50;;
38787;SDS011;24536;45.488;12.238;2024-03-08T04:10:48;1.88;;;1.38;;
38787;SDS011;24536;45.488;12.238;2024-03-08T04:13:14;1.30;;;1.20;;
38787;SDS011;24536;45.488;12.238;2024-03-08T04:15:40;2.45;;;1.48;;
38787;SDS011;24536;45.488;12.238;2024-03-08T04:18:09;2.63;;;2.05;;
38787;SDS011;24536;45.488;12.238;2024-03-08T04:20:34;2.03;;;1.55;;
38787;SDS011;24536;45.488;12.238;2024-03-08T04:23:00;1.55;;;1.08;;
38787;SDS011;24536;45.488;12.238;2024-03-08T04:25:27;2.00;;;1.65;;
38787;SDS011;24536;45.488;12.238;2024-03-08T04:27:53;1.33;;;1.17;;
38787;SDS011;24536;45.488;12.238;2024-03-08T04:30:18;2.45;;;1.35;;
38787;SDS011;24536;45.488;12.238;2024-03-08T04:32:46;1.73;;;1.10;;
38787;SDS011;24536;45.488;12.238;2024-03-08T04:35:12;1.38;;;1.27;;
38787;SDS011;24536;45.488;12.238;2024-03-08T04:37:38;1.58;;;1.20;;
38787;SDS011;24536;45.488;12.238;2024-03-08T04:40:04;1.40;;;1.30;;
38787;SDS011;24536;45.488;12.238;2024-03-08T04:42:30;1.40;;;1.30;;
38787;SDS011;24536;45.488;12.238;2024-03-08T04:45:00;1.23;;;1.13;;
38787;SDS011;24536;45.488;12.238;2024-03-08T04:47:26;1.48;;;1.38;;
38787;SDS011;24536;45.488;12.238;2024-03-08T04:49:51;1.45;;;1.35;;
38787;SDS011;24536;45.488;12.238;2024-03-08T04:52:18;1.60;;;1.50;;
38787;SDS011;24536;45.488;12.238;2024-03-08T04:54:43;1.73;;;1.50;;
38787;SDS011;24536;45.488;12.238;2024-03-08T04:57:24;2.05;;;1.30;;
38787;SDS011;24536;45.488;12.238;2024-03-08T04:59:50;1.92;;;1.63;;
38787;SDS011;24536;45.488;12.238;2024-03-08T05:02:16;2.00;;;1.67;;
38787;SDS011;24536;45.488;12.238;2024-03-08T05:04:42;1.50;;;1.40;;
38787;SDS011;24536;45.488;12.238;2024-03-08T05:07:08;1.77;;;1.30;;
38787;SDS011;24536;45.488;12.238;2024-03-08T05:09:34;1.40;;;1.30;;
38787;SDS011;24536;45.488;12.238;2024-03-08T05:12:01;2.10;;;1.60;;
38787;SDS011;24536;45.488;12.238;2024-03-08T05:14:27;1.92;;;1.50;;
38787;SDS011;24536;45.488;12.238;2024-03-08T05:16:52;1.70;;;1.50;;
38787;SDS011;24536;45.488;12.238;2024-03-08T05:19:18;1.70;;;1.60;;
38787;SDS011;24536;45.488;12.238;2024-03-08T05:21:47;1.40;;;1.30;;
38787;SDS011;24536;45.488;12.238;2024-03-08T05:24:14;1.13;;;0.98;;
38787;SDS011;24536;45.488;12.238;2024-03-08T05:26:40;1.40;;;1.20;;
38787;SDS011;24536;45.488;12.238;2024-03-08T05:29:07;1.58;;;1.30;;
38787;SDS011;24536;45.488;12.238;2024-03-08T05:31:49;1.40;;;1.20;;
38787;SDS011;24536;45.488;12.238;2024-03-08T05:34:19;3.28;;;1.48;;
38787;SDS011;24536;45.488;12.238;2024-03-08T05:36:47;1.58;;;1.35;;
38787;SDS011;24536;45.488;12.238;2024-03-08T05:39:14;2.42;;;1.67;;
38787;SDS011;24536;45.488;12.238;2024-03-08T05:41:42;1.48;;;1.38;;
38787;SDS011;24536;45.488;12.238;2024-03-08T05:44:08;1.50;;;1.40;;
38787;SDS011;24536;45.488;12.238;2024-03-08T05:46:35;3.42;;;1.52;;
38787;SDS011;24536;45.488;12.238;2024-03-08T05:49:07;1.40;;;1.30;;
38787;SDS011;24536;45.488;12.238;2024-03-08T05:51:35;2.50;;;1.67;;
38787;SDS011;24536;45.488;12.238;2024-03-08T05:54:06;1.75;;;1.50;;
38787;SDS011;24536;45.488;12.238;2024-03-08T05:56:35;1.92;;;1.67;;
38787;SDS011;24536;45.488;12.238;2024-03-08T05:59:07;1.75;;;1.60;;
38787;SDS011;24536;45.488;12.238;2024-03-08T06:01:33;1.80;;;1.70;;
38787;SDS011;24536;45.488;12.238;2024-03-08T06:04:01;2.55;;;1.60;;
38787;SDS011;24536;45.488;12.238;2024-03-08T06:06:27;2.55;;;1.60;;
38787;SDS011;24536;45.488;12.238;2024-03-08T06:08:53;2.80;;;1.80;;
38787;SDS011;24536;45.488;12.238;2024-03-08T06:11:19;1.70;;;1.60;;
38787;SDS011;24536;45.488;12.238;2024-03-08T06:13:45;2.47;;;1.70;;
38787;SDS011;24536;45.488;12.238;2024-03-08T06:16:11;2.60;;;2.17;;
38787;SDS011;24536;45.488;12.238;2024-03-08T06:18:37;2.38;;;1.98;;
38787;SDS011;24536;45.488;12.238;2024-03-08T06:21:06;2.20;;;2.00;;
38787;SDS011;24536;45.488;12.238;2024-03-08T06:23:34;2.58;;;2.20;;
38787;SDS011;24536;45.488;12.238;2024-03-08T06:26:03;4.05;;;2.47;;
38787;SDS011;24536;45.488;12.238;2024-03-08T06:28:30;2.33;;;1.92;;
38787;SDS011;24536;45.488;12.238;2024-03-08T06:30:57;2.75;;;2.55;;
38787;SDS011;24536;45.488;12.238;2024-03-08T06:33:24;3.30;;;2.50;;
38787;SDS011;24536;45.488;12.238;2024-03-08T06:35:51;2.90;;;2.55;;
38787;SDS011;24536;45.488;12.238;2024-03-08T06:38:17;2.17;;;1.98;;
38787;SDS011;24536;45.488;12.238;2024-03-08T06:40:44;3.72;;;2.90;;
38787;SDS011;24536;45.488;12.238;2024-03-08T06:43:12;4.38;;;3.30;;
38787;SDS011;24536;45.488;12.238;2024-03-08T06:45:46;3.15;;;2.83;;
38787;SDS011;24536;45.488;12.238;2024-03-08T06:48:18;4.93;;;3.90;;
38787;SDS011;24536;45.488;12.238;2024-03-08T06:50:47;5.07;;;4.07;;
38787;SDS011;24536;45.488;12.238;2024-03-08T06:53:13;4.70;;;4.30;;
38787;SDS011;24536;45.488;12.238;2024-03-08T06:55:38;6.05;;;5.10;;
38787;SDS011;24536;45.488;12.238;2024-03-08T06:58:05;5.93;;;4.70;;
38787;SDS011;24536;45.488;12.238;2024-03-08T07:00:32;5.47;;;4.95;;
38787;SDS011;24536;45.488;12.238;2024-03-08T07:02:57;6.55;;;5.80;;
38787;SDS011;24536;45.488;12.238;2024-03-08T07:05:26;9.23;;;6.63;;
38787;SDS011;24536;45.488;12.238;2024-03-08T07:07:52;5.18;;;4.68;;
38787;SDS011;24536;45.488;12.238;2024-03-08T07:10:19;7.43;;;5.75;;
38787;SDS011;24536;45.488;12.238;2024-03-08T07:12:51;7.82;;;6.03;;
38787;SDS011;24536;45.488;12.238;2024-03-08T07:15:18;9.00;;;7.10;;
38787;SDS011;24536;45.488;12.238;2024-03-08T07:17:44;6.82;;;6.13;;
38787;SDS011;24536;45.488;12.238;2024-03-08T07:20:11;6.20;;;5.60;;
38787;SDS011;24536;45.488;12.238;2024-03-08T07:22:38;7.82;;;6.90;;
38787;SDS011;24536;45.488;12.238;2024-03-08T07:25:07;8.65;;;5.22;;
38787;SDS011;24536;45.488;12.238;2024-03-08T07:27:42;7.00;;;4.40;;
38787;SDS011;24536;45.488;12.238;2024-03-08T07:30:08;5.30;;;4.80;;
38787;SDS011;24536;45.488;12.238;2024-03-08T07:32:37;6.68;;;4.70;;
38787;SDS011;24536;45.488;12.238;2024-03-08T07:35:03;4.85;;;4.35;;
38787;SDS011;24536;45.488;12.238;2024-03-08T07:37:29;4.97;;;4.38;;
38787;SDS011;24536;45.488;12.238;2024-03-08T07:39:56;5.18;;;4.28;;
38787;SDS011;24536;45.488;12.238;2024-03-08T07:42:23;7.60;;;5.00;;
38787;SDS011;24536;45.488;12.238;2024-03-08T07:44:48;5.05;;;4.55;;
38787;SDS011;24536;45.488;12.238;2024-03-08T07:47:15;5.55;;;4.70;;
38787;SDS011;24536;45.488;12.238;2024-03-08T07:49:42;6.10;;;5.18;;
38787;SDS011;24536;45.488;12.238;2024-03-08T07:52:09;7.10;;;5.60;;
38787;SDS011;24536;45.488;12.238;2024-03-08T07:57:05;6.38;;;5.43;;
38787;SDS011;24536;45.488;12.238;2024-03-08T07:59:32;6.85;;;5.07;;
38787;SDS011;24536;45.488;12.238;2024-03-08T08:01:58;4.82;;;4.18;;
38787;SDS011;24536;45.488;12.238;2024-03-08T08:04:24;5.05;;;4.28;;
38787;SDS011;24536;45.488;12.238;2024-03-08T08:06:50;6.13;;;4.78;;
38787;SDS011;24536;45.488;12.238;2024-03-08T08:09:16;4.95;;;4.40;;
38787;SDS011;24536;45.488;12.238;2024-03-08T08:11:53;5.07;;;4.15;;
38787;SDS011;24536;45.488;12.238;2024-03-08T08:14:21;4.65;;;4.15;;
38787;SDS011;24536;45.488;12.238;2024-03-08T08:16:47;4.50;;;3.97;;
38787;SDS011;24536;45.488;12.238;2024-03-08T08:19:15;5.10;;;4.22;;
38787;SDS011;24536;45.488;12.238;2024-03-08T08:21:41;4.90;;;4.20;;
38787;SDS011;24536;45.488;12.238;2024-03-08T08:24:06;3.78;;;3.47;;
38787;SDS011;24536;45.488;12.238;2024-03-08T08:26:32;4.18;;;3.78;;
38787;SDS011;24536;45.488;12.238;2024-03-08T08:28:59;5.15;;;4.10;;
38787;SDS011;24536;45.488;12.238;2024-03-08T08:31:24;5.03;;;3.90;;
38787;SDS011;24536;45.488;12.238;2024-03-08T08:33:51;5.13;;;3.75;;
38787;SDS011;24536;45.488;12.238;2024-03-08T08:36:23;4.75;;;3.70;;
38787;SDS011;24536;45.488;12.238;2024-03-08T08:38:49;5.70;;;3.80;;
38787;SDS011;24536;45.488;12.238;2024-03-08T08:41:15;5.35;;;4.50;;
38787;SDS011;24536;45.488;12.238;2024-03-08T08:43:42;5.00;;;4.15;;
38787;SDS011;24536;45.488;12.238;2024-03-08T08:46:11;6.60;;;5.57;;
38787;SDS011;24536;45.488;12.238;2024-03-08T08:48:40;4.97;;;4.45;;
38787;SDS011;24536;45.488;12.238;2024-03-08T08:51:06;5.30;;;4.80;;
38787;SDS011;24536;45.488;12.238;2024-03-08T08:53:37;6.07;;;4.85;;
38787;SDS011;24536;45.488;12.238;2024-03-08T08:56:11;5.93;;;5.22;;
38787;SDS011;24536;45.488;12.238;2024-03-08T08:58:40;5.78;;;5.18;;
38787;SDS011;24536;45.488;12.238;2024-03-08T09:01:07;5.70;;;5.10;;
38787;SDS011;24536;45.488;12.238;2024-03-08T09:03:34;7.13;;;6.00;;
38787;SDS011;24536;45.488;12.238;2024-03-08T09:06:02;6.53;;;5.50;;
38787;SDS011;24536;45.488;12.238;2024-03-08T09:08:29;7.40;;;6.00;;
38787;SDS011;24536;45.488;12.238;2024-03-08T09:10:54;7.38;;;6.53;;
38787;SDS011;24536;45.488;12.238;2024-03-08T09:13:20;8.40;;;5.60;;
38787;SDS011;24536;45.488;12.238;2024-03-08T09:15:46;6.18;;;5.57;;
38787;SDS011;24536;45.488;12.238;2024-03-08T09:18:11;6.75;;;5.78;;
38787;SDS011;24536;45.488;12.238;2024-03-08T09:20:37;8.25;;;6.65;;
38787;SDS011;24536;45.488;12.238;2024-03-08T09:23:03;6.22;;;5.50;;
38787;SDS011;24536;45.488;12.238;2024-03-08T09:25:29;5.95;;;5.07;;
38787;SDS011;24536;45.488;12.238;2024-03-08T09:27:55;7.07;;;5.70;;
38787;SDS011;24536;45.488;12.238;2024-03-08T09:30:20;6.22;;;5.47;;
38787;SDS011;24536;45.488;12.238;2024-03-08T09:32:46;6.72;;;5.85;;
38787;SDS011;24536;45.488;12.238;2024-03-08T09:35:13;6.18;;;5.57;;
38787;SDS011;24536;45.488;12.238;2024-03-08T09:37:40;7.00;;;5.75;;
38787;SDS011;24536;45.488;12.238;2024-03-08T09:40:06;6.28;;;5.47;;
38787;SDS011;24536;45.488;12.238;2024-03-08T09:42:34;6.75;;;5.15;;
38787;SDS011;24536;45.488;12.238;2024-03-08T09:45:08;7.53;;;5.73;;
38787;SDS011;24536;45.488;12.238;2024-03-08T09:47:40;6.95;;;5.45;;
38787;SDS011;24536;45.488;12.238;2024-03-08T09:50:07;6.18;;;5.57;;
38787;SDS011;24536;45.488;12.238;2024-03-08T09:52:37;6.80;;;5.65;;
38787;SDS011;24536;45.488;12.238;2024-03-08T09:55:05;11.27;;;8.77;;
38787;SDS011;24536;45.488;12.238;2024-03-08T09:57:32;6.32;;;5.72;;
38787;SDS011;24536;45.488;12.238;2024-03-08T10:00:01;6.82;;;5.90;;
38787;SDS011;24536;45.488;12.238;2024-03-08T10:02:33;6.38;;;5.18;;
38787;SDS011;24536;45.488;12.238;2024-03-08T10:05:00;7.15;;;5.95;;
38787;SDS011;24536;45.488;12.238;2024-03-08T10:07:28;8.57;;;6.35;;
38787;SDS011;24536;45.488;12.238;2024-03-08T10:09:54;7.40;;;5.97;;
38787;SDS011;24536;45.488;12.238;2024-03-08T10:12:20;6.90;;;5.85;;
38787;SDS011;24536;45.488;12.238;2024-03-08T10:14:45;6.68;;;5.97;;
38787;SDS011;24536;45.488;12.238;2024-03-08T10:17:11;7.00;;;6.00;;
38787;SDS011;24536;45.488;12.238;2024-03-08T10:19:37;12.57;;;7.68;;
38787;SDS011;24536;45.488;12.238;2024-03-08T10:22:04;8.98;;;6.97;;
38787;SDS011;24536;45.488;12.238;2024-03-08T10:24:31;7.82;;;6.38;;
38787;SDS011;24536;45.488;12.238;2024-03-08T10:27:01;9.45;;;6.55;;
38787;SDS011;24536;45.488;12.238;2024-03-08T10:29:30;9.02;;;7.90;;
38787;SDS011;24536;45.488;12.238;2024-03-08T10:31:56;7.68;;;6.82;;
38787;SDS011;24536;45.488;12.238;2024-03-08T10:34:22;7.20;;;6.50;;
38787;SDS011;24536;45.488;12.238;2024-03-08T10:36:49;10.85;;;9.75;;
38787;SDS011;24536;45.488;12.238;2024-03-08T10:39:23;8.95;;;6.85;;
38787;SDS011;24536;45.488;12.238;2024-03-08T10:41:53;10.52;;;7.95;;
38787;SDS011;24536;45.488;12.238;2024-03-08T10:47:02;10.13;;;8.32;;
38787;SDS011;24536;45.488;12.238;2024-03-08T10:50:10;10.65;;;8.63;;
38787;SDS011;24536;45.488;12.238;2024-03-08T10:52:45;9.45;;;7.65;;
38787;SDS011;24536;45.488;12.238;2024-03-08T10:55:14;8.57;;;7.50;;
38787;SDS011;24536;45.488;12.238;2024-03-08T10:57:42;8.35;;;6.57;;
38787;SDS011;24536;45.488;12.238;2024-03-08T11:00:08;8.20;;;6.63;;
38787;SDS011;24536;45.488;12.238;2024-03-08T11:02:37;10.57;;;8.70;;
38787;SDS011;24536;45.488;12.238;2024-03-08T11:05:03;7.65;;;6.47;;
38787;SDS011;24536;45.488;12.238;2024-03-08T11:07:33;6.85;;;5.70;;
38787;SDS011;24536;45.488;12.238;2024-03-08T11:10:02;7.32;;;6.30;;
38787;SDS011;24536;45.488;12.238;2024-03-08T11:12:35;6.15;;;5.35;;
38787;SDS011;24536;45.488;12.238;2024-03-08T11:15:03;6.97;;;6.28;;
38787;SDS011;24536;45.488;12.238;2024-03-08T11:20:04;7.32;;;5.93;;
38787;SDS011;24536;45.488;12.238;2024-03-08T11:22:40;6.95;;;5.93;;
38787;SDS011;24536;45.488;12.238;2024-03-08T11:25:13;5.93;;;5.30;;
38787;SDS011;24536;45.488;12.238;2024-03-08T11:30:32;7.07;;;6.25;;
38787;SDS011;24536;45.488;12.238;2024-03-08T11:33:00;7.18;;;6.22;;
38787;SDS011;24536;45.488;12.238;2024-03-08T11:35:28;6.28;;;5.53;;
38787;SDS011;24536;45.488;12.238;2024-03-08T11:37:54;8.73;;;6.65;;
38787;SDS011;24536;45.488;12.238;2024-03-08T11:40:23;7.53;;;6.40;;
38787;SDS011;24536;45.488;12.238;2024-03-08T11:42:49;7.32;;;6.45;;
38787;SDS011;24536;45.488;12.238;2024-03-08T11:45:16;6.65;;;5.95;;
38787;SDS011;24536;45.488;12.238;2024-03-08T11:47:43;7.28;;;6.43;;
38787;SDS011;24536;45.488;12.238;2024-03-08T11:50:11;7.10;;;6.03;;
38787;SDS011;24536;45.488;12.238;2024-03-08T11:52:37;8.23;;;7.00;;
38787;SDS011;24536;45.488;12.238;2024-03-08T11:55:03;12.80;;;9.35;;
38787;SDS011;24536;45.488;12.238;2024-03-08T11:57:30;6.78;;;6.07;;
38787;SDS011;24536;45.488;12.238;2024-03-08T11:59:57;8.23;;;6.88;;
38787;SDS011;24536;45.488;12.238;2024-03-08T12:02:31;9.18;;;7.68;;
38787;SDS011;24536;45.488;12.238;2024-03-08T12:04:57;9.55;;;8.27;;
38787;SDS011;24536;45.488;12.238;2024-03-08T12:07:28;7.70;;;6.60;;
38787;SDS011;24536;45.488;12.238;2024-03-08T12:12:46;7.50;;;6.68;;
38787;SDS011;24536;45.488;12.238;2024-03-08T12:15:12;7.53;;;6.72;;
38787;SDS011;24536;45.488;12.238;2024-03-08T12:17:43;9.02;;;6.82;;
38787;SDS011;24536;45.488;12.238;2024-03-08T12:20:17;11.90;;;10.25;;
38787;SDS011;24536;45.488;12.238;2024-03-08T12:22:43;7.32;;;6.20;;
38787;SDS011;24536;45.488;12.238;2024-03-08T12:25:13;8.60;;;6.68;;
38787;SDS011;24536;45.488;12.238;2024-03-08T12:27:39;7.57;;;6.78;;
38787;SDS011;24536;45.488;12.238;2024-03-08T12:30:25;7.97;;;7.18;;
38787;SDS011;24536;45.488;12.238;2024-03-08T12:32:58;7.78;;;6.93;;
38787;SDS011;24536;45.488;12.238;2024-03-08T12:35:29;7.57;;;6.78;;
38787;SDS011;24536;45.488;12.238;2024-03-08T12:40:28;9.55;;;7.75;;
38787;SDS011;24536;45.488;12.238;2024-03-08T12:42:56;11.40;;;9.18;;
38787;SDS011;24536;45.488;12.238;2024-03-08T12:45:26;8.15;;;6.88;;
38787;SDS011;24536;45.488;12.238;2024-03-08T12:47:55;8.02;;;7.10;;
38787;SDS011;24536;45.488;12.238;2024-03-08T12:50:21;9.55;;;8.50;;
38787;SDS011;24536;45.488;12.238;2024-03-08T12:52:48;8.32;;;6.95;;
38787;SDS011;24536;45.488;12.238;2024-03-08T12:55:14;8.27;;;7.38;;
38787;SDS011;24536;45.488;12.238;2024-03-08T12:57:41;10.32;;;8.73;;
38787;SDS011;24536;45.488;12.238;2024-03-08T13:00:07;10.75;;;7.93;;
38787;SDS011;24536;45.488;12.238;2024-03-08T13:02:48;7.63;;;6.82;;
38787;SDS011;24536;45.488;12.238;2024-03-08T13:05:16;12.40;;;9.68;;
38787;SDS011;24536;45.488;12.238;2024-03-08T13:07:42;7.95;;;7.13;;
38787;SDS011;24536;45.488;12.238;2024-03-08T13:10:14;11.02;;;8.45;;
38787;SDS011;24536;45.488;12.238;2024-03-08T13:12:44;8.18;;;6.88;;
38787;SDS011;24536;45.488;12.238;2024-03-08T13:15:09;9.50;;;7.38;;
38787;SDS011;24536;45.488;12.238;2024-03-08T13:17:40;9.02;;;7.05;;
38787;SDS011;24536;45.488;12.238;2024-03-08T13:20:07;9.10;;;6.82;;
38787;SDS011;24536;45.488;12.238;2024-03-08T13:22:33;7.18;;;6.07;;
38787;SDS011;24536;45.488;12.238;2024-03-08T13:24:59;7.32;;;6.20;;
38787;SDS011;24536;45.488;12.238;2024-03-08T13:27:27;7.38;;;6.65;;
38787;SDS011;24536;45.488;12.238;2024-03-08T13:29:53;9.00;;;6.95;;
38787;SDS011;24536;45.488;12.238;2024-03-08T13:32:19;11.10;;;9.95;;
38787;SDS011;24536;45.488;12.238;2024-03-08T13:34:47;7.97;;;6.90;;
38787;SDS011;24536;45.488;12.238;2024-03-08T13:37:16;8.70;;;6.88;;
38787;SDS011;24536;45.488;12.238;2024-03-08T13:39:42;12.07;;;8.85;;
38787;SDS011;24536;45.488;12.238;2024-03-08T13:42:11;9.25;;;8.10;;
38787;SDS011;24536;45.488;12.238;2024-03-08T13:44:47;7.18;;;6.15;;
38787;SDS011;24536;45.488;12.238;2024-03-08T13:47:14;10.73;;;8.63;;
38787;SDS011;24536;45.488;12.238;2024-03-08T13:49:41;7.07;;;6.38;;
38787;SDS011;24536;45.488;12.238;2024-03-08T13:52:08;8.20;;;7.07;;
38787;SDS011;24536;45.488;12.238;2024-03-08T13:54:35;8.18;;;6.70;;
38787;SDS011;24536;45.488;12.238;2024-03-08T13:57:01;9.05;;;7.20;;
38787;SDS011;24536;45.488;12.238;2024-03-08T13:59:29;9.93;;;8.93;;
38787;SDS011;24536;45.488;12.238;2024-03-08T14:01:56;9.93;;;7.00;;
38787;SDS011;24536;45.488;12.238;2024-03-08T14:04:22;7.50;;;6.70;;
38787;SDS011;24536;45.488;12.238;2024-03-08T14:06:49;8.57;;;7.10;;
38787;SDS011;24536;45.488;12.238;2024-03-08T14:09:15;7.90;;;6.82;;
38787;SDS011;24536;45.488;12.238;2024-03-08T14:11:44;8.48;;;7.03;;
38787;SDS011;24536;45.488;12.238;2024-03-08T14:14:10;8.82;;;7.72;;
38787;SDS011;24536;45.488;12.238;2024-03-08T14:16:37;8.60;;;7.47;;
38787;SDS011;24536;45.488;12.238;2024-03-08T14:19:07;7.93;;;7.03;;
38787;SDS011;24536;45.488;12.238;2024-03-08T14:21:35;8.43;;;7.53;;
38787;SDS011;24536;45.488;12.238;2024-03-08T14:24:02;9.63;;;7.78;;
38787;SDS011;24536;45.488;12.238;2024-03-08T14:26:29;9.65;;;8.07;;
38787;SDS011;24536;45.488;12.238;2024-03-08T14:28:55;8.20;;;7.18;;
38787;SDS011;24536;45.488;12.238;2024-03-08T14:31:22;9.23;;;7.72;;
38787;SDS011;24536;45.488;12.238;2024-03-08T14:33:50;9.57;;;8.55;;
38787;SDS011;24536;45.488;12.238;2024-03-08T14:36:17;9.98;;;8.98;;
38787;SDS011;24536;45.488;12.238;2024-03-08T14:38:45;8.63;;;7.72;;
38787;SDS011;24536;45.488;12.238;2024-03-08T14:41:12;7.80;;;6.97;;
38787;SDS011;24536;45.488;12.238;2024-03-08T14:43:42;8.45;;;7.47;;
38787;SDS011;24536;45.488;12.238;2024-03-08T14:46:10;9.97;;;8.57;;
38787;SDS011;24536;45.488;12.238;2024-03-08T14:48:43;8.48;;;7.43;;
38787;SDS011;24536;45.488;12.238;2024-03-08T14:51:09;9.18;;;7.60;;
38787;SDS011;24536;45.488;12.238;2024-03-08T14:53:36;9.18;;;7.95;;
38787;SDS011;24536;45.488;12.238;2024-03-08T14:56:06;7.80;;;7.00;;